Emerson, Iowa
Current Conditions -  °F | °C
As of 4:55 PM on Saturday 20 Dec 2014 (Local Time) from KRDK Reporting Station
Haze Haze  
Wind Chill: 28°   Ceiling: 600
Heat Index: 34°   Visibility: 4mi
Dew Point: 32°   Wind: 7mph
Humidity: 93%   Direction: 150°SSE
Pressure: 30.1"   Gusts: NA
Location:  41.02°N, 95.4°W
Report Text: KRDK 202255Z AUTO 15006KT 4SM BR OVC006 01/00 A3010 RMK AO2
Loading
Personal Weather Stations






























Interactive Weather Map New forecast layout! Learn more

10-Day Weather Forecast

Advertisements
Track Severe Weather on mobile